createdAt,value
2023-05-03T00:00:04.258Z,12.94
2023-05-03T00:01:04.326Z,12.88
2023-05-03T00:02:03.895Z,13.00
2023-05-03T00:03:03.542Z,13.00
2023-05-03T00:04:04.190Z,13.12
2023-05-03T00:05:04.752Z,13.19
2023-05-03T00:06:04.084Z,13.19
2023-05-03T00:07:03.779Z,13.12
2023-05-03T00:08:04.241Z,13.06
2023-05-03T00:10:04.313Z,13.12
2023-05-03T00:12:04.241Z,13.00
2023-05-03T00:13:03.851Z,12.88
2023-05-03T00:14:04.084Z,12.81
2023-05-03T00:16:04.150Z,12.88
2023-05-03T00:17:03.738Z,13.06
2023-05-03T00:18:04.309Z,13.06
2023-05-03T00:20:04.628Z,13.25
2023-05-03T00:21:04.271Z,13.25
2023-05-03T00:22:03.845Z,13.12
2023-05-03T00:23:03.855Z,13.06
2023-05-03T00:24:04.245Z,13.12
2023-05-03T00:26:03.684Z,13.31
2023-05-03T00:27:03.782Z,13.31
2023-05-03T00:28:03.948Z,13.25
2023-05-03T00:29:03.451Z,13.56
2023-05-03T00:30:04.722Z,13.62
2023-05-03T00:31:04.340Z,13.81
2023-05-03T00:32:03.539Z,13.94
2023-05-03T00:33:04.208Z,13.94
2023-05-03T00:34:03.950Z,13.88
2023-05-03T00:35:04.418Z,13.81
2023-05-03T00:37:04.425Z,13.69
2023-05-03T00:38:03.604Z,13.75
2023-05-03T00:40:04.319Z,13.62
2023-05-03T00:41:03.537Z,13.56
2023-05-03T00:42:04.433Z,13.50
2023-05-03T00:43:04.249Z,13.50
2023-05-03T00:45:03.721Z,13.31
2023-05-03T00:46:12.845Z,13.38
2023-05-03T00:47:04.203Z,13.44
2023-05-03T00:48:04.311Z,13.44
2023-05-03T00:50:04.569Z,13.44
2023-05-03T00:51:03.849Z,13.50
2023-05-03T00:52:03.842Z,13.62
2023-05-03T00:53:03.858Z,13.81
2023-05-03T00:54:04.506Z,14.12
2023-05-03T00:55:04.109Z,14.19
2023-05-03T00:56:03.608Z,14.00
2023-05-03T00:57:03.696Z,13.94
2023-05-03T00:59:04.281Z,13.75
2023-05-03T01:00:04.034Z,13.81
2023-05-03T01:01:04.166Z,13.69
2023-05-03T01:02:03.838Z,13.81
2023-05-03T01:03:04.522Z,13.81
2023-05-03T01:04:03.910Z,14.00
2023-05-03T01:05:03.537Z,13.88
2023-05-03T01:06:03.725Z,14.12
2023-05-03T01:07:03.852Z,14.00
2023-05-03T01:08:04.255Z,13.88
2023-05-03T01:09:04.175Z,13.88
2023-05-03T01:10:04.217Z,13.94
2023-05-03T01:13:04.243Z,14.00
2023-05-03T01:14:03.721Z,13.94
2023-05-03T01:15:03.682Z,13.94
2023-05-03T01:16:03.667Z,14.00
2023-05-03T01:17:03.770Z,14.06
2023-05-03T01:18:03.880Z,14.06
2023-05-03T01:19:04.492Z,14.00
2023-05-03T01:21:04.283Z,14.12
2023-05-03T01:23:04.185Z,14.06
2023-05-03T01:24:03.721Z,14.19
2023-05-03T01:26:03.453Z,15.25
2023-05-03T01:27:04.099Z,15.81
2023-05-03T01:29:04.191Z,16.00
2023-05-03T01:31:03.528Z,15.88
2023-05-03T01:32:03.822Z,15.81
2023-05-03T01:33:04.436Z,15.75
2023-05-03T01:34:04.348Z,15.75
2023-05-03T01:36:03.796Z,16.00
2023-05-03T01:37:04.424Z,16.00
2023-05-03T01:38:03.846Z,16.19
2023-05-03T01:39:04.588Z,15.81
2023-05-03T01:40:04.770Z,15.75
2023-05-03T01:41:04.008Z,15.69
2023-05-03T01:42:04.084Z,15.75
2023-05-03T01:43:04.082Z,15.69
2023-05-03T01:44:03.763Z,15.88
2023-05-03T01:45:04.243Z,16.06
2023-05-03T01:46:03.986Z,16.12
2023-05-03T01:47:03.848Z,16.12
2023-05-03T01:48:04.452Z,16.44
2023-05-03T01:49:03.687Z,16.50
2023-05-03T01:50:03.867Z,16.62
2023-05-03T01:51:03.542Z,16.50
2023-05-03T01:52:04.272Z,16.50
2023-05-03T01:54:03.699Z,16.31
2023-05-03T01:55:04.262Z,16.38
2023-05-03T01:56:03.760Z,16.50
2023-05-03T01:57:03.781Z,16.50
2023-05-03T01:58:04.167Z,16.50
2023-05-03T01:59:03.711Z,16.50
2023-05-03T02:00:04.573Z,16.50
2023-05-03T02:02:03.692Z,16.50
2023-05-03T02:03:04.239Z,16.56
2023-05-03T02:04:03.903Z,16.75
2023-05-03T02:05:03.615Z,16.75
2023-05-03T02:06:03.721Z,16.75
2023-05-03T02:08:04.178Z,16.69
2023-05-03T02:09:04.327Z,16.69
2023-05-03T02:10:04.472Z,16.56
2023-05-03T02:11:04.095Z,16.56
2023-05-03T02:12:03.691Z,16.38
2023-05-03T02:13:03.793Z,16.69
2023-05-03T02:14:04.249Z,16.94
2023-05-03T02:15:03.864Z,17.00
2023-05-03T02:16:03.688Z,17.06
2023-05-03T02:17:03.993Z,17.06
2023-05-03T02:18:03.650Z,16.94
2023-05-03T02:19:04.256Z,16.75
2023-05-03T02:21:03.857Z,16.62
2023-05-03T02:22:04.411Z,16.62
2023-05-03T02:23:03.941Z,16.81
2023-05-03T02:25:04.180Z,16.88
2023-05-03T02:26:03.721Z,16.81
2023-05-03T02:27:04.344Z,17.19
2023-05-03T02:28:03.778Z,17.44
2023-05-03T02:29:04.347Z,17.50
2023-05-03T02:30:04.190Z,17.50
2023-05-03T02:31:04.484Z,17.31
2023-05-03T02:33:04.327Z,17.19
2023-05-03T02:34:03.943Z,17.06
2023-05-03T02:35:03.524Z,17.25
2023-05-03T02:38:04.209Z,17.25
2023-05-03T02:39:03.704Z,16.88
2023-05-03T02:41:03.856Z,16.94
2023-05-03T02:42:04.426Z,16.75
2023-05-03T02:43:03.957Z,16.88
2023-05-03T02:44:04.097Z,16.81
2023-05-03T02:46:03.666Z,17.06
2023-05-03T02:47:04.190Z,17.00
2023-05-03T02:48:03.723Z,16.88
2023-05-03T02:49:03.542Z,16.94
2023-05-03T02:50:04.403Z,16.94
2023-05-03T02:52:04.424Z,17.00
2023-05-03T02:53:04.338Z,16.81
2023-05-03T02:55:03.539Z,16.38
2023-05-03T02:56:04.212Z,16.31
2023-05-03T02:57:03.696Z,16.44
2023-05-03T02:58:03.762Z,16.38
2023-05-03T02:59:03.685Z,16.25
2023-05-03T03:00:03.851Z,16.31
2023-05-03T03:02:04.015Z,16.44
2023-05-03T03:03:04.120Z,16.44
2023-05-03T03:04:03.930Z,16.50
2023-05-03T03:05:04.252Z,16.56
2023-05-03T03:06:03.883Z,16.50
2023-05-03T03:08:04.087Z,16.44
2023-05-03T03:10:04.719Z,16.25
2023-05-03T03:11:03.779Z,16.12
2023-05-03T03:12:03.694Z,16.19
2023-05-03T03:14:04.091Z,16.19
2023-05-03T03:15:03.775Z,15.94
2023-05-03T03:16:04.368Z,16.19
2023-05-03T03:17:04.253Z,16.38
2023-05-03T03:19:03.841Z,16.50
2023-05-03T03:21:03.682Z,15.88
2023-05-03T03:22:04.263Z,15.81
2023-05-03T03:24:03.645Z,15.62
2023-05-03T03:25:04.218Z,15.62
2023-05-03T03:26:04.205Z,15.50
2023-05-03T03:28:03.519Z,16.25
2023-05-03T03:29:04.174Z,16.31
2023-05-03T03:31:04.277Z,16.62
2023-05-03T03:32:04.183Z,16.69
2023-05-03T03:34:03.693Z,15.94
2023-05-03T03:35:05.065Z,15.75
2023-05-03T03:36:03.780Z,15.50
2023-05-03T03:38:04.409Z,15.56
2023-05-03T03:40:04.342Z,15.56
2023-05-03T03:41:03.535Z,15.19
2023-05-03T03:42:04.173Z,15.31
2023-05-03T03:43:03.693Z,15.19
2023-05-03T03:45:04.266Z,15.62
2023-05-03T03:46:03.768Z,15.94
2023-05-03T03:47:04.279Z,16.19
2023-05-03T03:48:04.385Z,16.25
2023-05-03T03:49:03.939Z,16.00
2023-05-03T03:50:03.726Z,16.44
2023-05-03T03:51:04.169Z,16.12
2023-05-03T03:52:03.769Z,15.81
2023-05-03T03:53:03.695Z,15.69
2023-05-03T03:54:03.610Z,15.44
2023-05-03T03:55:03.679Z,15.19
2023-05-03T03:56:03.684Z,15.19
2023-05-03T03:57:03.693Z,14.94
2023-05-03T03:58:03.697Z,14.81
2023-05-03T04:00:04.568Z,14.94
2023-05-03T04:01:03.773Z,15.06
2023-05-03T04:02:03.907Z,15.12
2023-05-03T04:03:05.252Z,14.75
2023-05-03T04:04:03.744Z,14.56
2023-05-03T04:06:04.428Z,14.25
2023-05-03T04:07:04.095Z,14.00
2023-05-03T04:08:03.781Z,14.12
2023-05-03T04:09:04.344Z,14.00
2023-05-03T04:10:04.663Z,14.06
2023-05-03T04:11:04.415Z,14.00
2023-05-03T04:12:03.933Z,14.31
2023-05-03T04:14:04.259Z,14.81
2023-05-03T04:15:04.330Z,14.81
2023-05-03T04:16:04.823Z,14.88
2023-05-03T04:17:03.954Z,14.94
2023-05-03T04:19:04.012Z,14.69
2023-05-03T04:20:04.042Z,14.56
2023-05-03T04:21:04.012Z,14.50
2023-05-03T04:22:03.958Z,14.69
2023-05-03T04:23:04.412Z,14.81
2023-05-03T04:24:04.024Z,14.81
2023-05-03T04:25:03.948Z,14.94
2023-05-03T04:26:04.962Z,14.75
2023-05-03T04:27:04.090Z,14.56
2023-05-03T04:29:04.420Z,14.62
2023-05-03T04:30:04.157Z,14.56
2023-05-03T04:31:03.539Z,14.31
2023-05-03T04:32:04.118Z,14.12
2023-05-03T04:34:03.780Z,14.38
2023-05-03T04:35:04.331Z,14.25
2023-05-03T04:36:04.347Z,14.62
2023-05-03T04:38:04.083Z,14.44
2023-05-03T04:39:04.096Z,14.69
2023-05-03T04:40:03.978Z,14.94
2023-05-03T04:41:04.000Z,14.88
2023-05-03T04:42:03.947Z,15.06
2023-05-03T04:44:03.532Z,15.06
2023-05-03T04:46:04.023Z,14.94
2023-05-03T04:47:03.935Z,14.88
2023-05-03T04:49:04.498Z,14.81
2023-05-03T04:50:04.314Z,14.75
2023-05-03T04:51:04.097Z,14.62
2023-05-03T04:52:04.025Z,14.56
2023-05-03T04:53:03.939Z,14.50
2023-05-03T04:55:03.783Z,14.69
2023-05-03T04:56:04.410Z,14.75
2023-05-03T04:57:04.178Z,14.69
2023-05-03T04:58:03.951Z,15.12
2023-05-03T05:00:04.403Z,15.44
2023-05-03T05:01:03.946Z,15.62
2023-05-03T05:02:03.916Z,16.31
2023-05-03T05:03:04.098Z,16.31
2023-05-03T05:05:04.132Z,16.31
2023-05-03T05:06:03.732Z,16.25
2023-05-03T05:08:04.510Z,16.50
2023-05-03T05:09:03.926Z,16.50
2023-05-03T05:10:03.856Z,16.31
2023-05-03T05:11:03.918Z,16.12
2023-05-03T05:12:03.617Z,16.25
2023-05-03T05:13:03.527Z,16.25
2023-05-03T05:14:03.534Z,16.25
2023-05-03T05:15:04.130Z,16.19
2023-05-03T05:16:03.825Z,16.25
2023-05-03T05:17:03.886Z,16.25
2023-05-03T05:18:03.558Z,16.38
2023-05-03T05:20:04.252Z,16.69
2023-05-03T05:22:04.091Z,16.88
2023-05-03T05:23:03.701Z,17.00
2023-05-03T05:24:04.492Z,17.25
2023-05-03T05:25:04.007Z,17.44
2023-05-03T05:26:04.093Z,17.81
2023-05-03T05:27:04.481Z,18.19
2023-05-03T05:30:04.582Z,18.00
2023-05-03T05:31:03.690Z,18.38
2023-05-03T05:32:03.869Z,19.62
2023-05-03T05:33:04.289Z,20.88
2023-05-03T05:34:03.866Z,21.81
2023-05-03T05:35:03.539Z,22.31
2023-05-03T05:36:04.086Z,21.50
2023-05-03T05:38:03.770Z,20.00
2023-05-03T05:40:04.571Z,20.00
2023-05-03T05:42:03.847Z,20.31
2023-05-03T05:43:04.337Z,20.19
2023-05-03T05:46:04.269Z,21.25
2023-05-03T05:47:04.011Z,21.19
2023-05-03T05:48:04.645Z,20.88
2023-05-03T05:50:07.638Z,20.38
2023-05-03T05:51:03.728Z,20.12
2023-05-03T05:52:03.850Z,20.25
2023-05-03T05:53:03.942Z,20.62
2023-05-03T05:55:04.499Z,20.56
2023-05-03T05:56:03.764Z,20.44
2023-05-03T05:58:04.174Z,20.81
2023-05-03T05:59:04.168Z,20.94
2023-05-03T06:00:04.102Z,20.75
2023-05-03T06:01:04.346Z,20.81
2023-05-03T06:02:03.973Z,20.81
2023-05-03T06:04:03.623Z,21.31
2023-05-03T06:05:05.592Z,21.38
2023-05-03T06:07:04.428Z,21.31
2023-05-03T06:08:03.936Z,21.31
2023-05-03T06:09:13.150Z,21.38
2023-05-03T06:11:04.335Z,21.44
2023-05-03T06:13:03.550Z,21.56
2023-05-03T06:14:03.544Z,21.19
2023-05-03T06:15:04.013Z,20.94
2023-05-03T06:16:03.546Z,20.69
2023-05-03T06:18:04.452Z,20.56
2023-05-03T06:19:04.186Z,20.44
2023-05-03T06:20:04.056Z,20.69
2023-05-03T06:21:03.635Z,20.75
2023-05-03T06:22:04.250Z,21.00
2023-05-03T06:23:03.875Z,21.00
2023-05-03T06:26:04.334Z,21.12
2023-05-03T06:27:03.855Z,21.19
2023-05-03T06:28:03.862Z,21.25
2023-05-03T06:29:04.329Z,21.38
2023-05-03T06:30:04.402Z,21.38
2023-05-03T06:31:03.882Z,21.38
2023-05-03T06:33:04.126Z,21.38
2023-05-03T06:36:04.419Z,21.19
2023-05-03T06:38:04.092Z,20.94
2023-05-03T06:39:03.609Z,20.88
2023-05-03T06:41:03.873Z,20.88
2023-05-03T06:42:04.418Z,20.81
2023-05-03T06:43:03.627Z,20.94
2023-05-03T06:44:04.101Z,20.94
2023-05-03T06:45:03.700Z,20.94
2023-05-03T06:46:03.738Z,20.94
2023-05-03T06:47:04.416Z,21.00
2023-05-03T06:48:03.600Z,20.94
2023-05-03T06:49:03.764Z,21.00
2023-05-03T06:50:04.661Z,21.12
2023-05-03T06:52:03.647Z,20.94
2023-05-03T06:53:03.705Z,20.81
2023-05-03T06:54:03.704Z,20.75
2023-05-03T06:55:04.454Z,20.69
2023-05-03T06:56:04.097Z,20.62
2023-05-03T06:57:04.171Z,20.62
2023-05-03T06:59:03.693Z,20.62
2023-05-03T07:00:04.427Z,20.81
2023-05-03T07:01:03.617Z,20.81
2023-05-03T07:02:03.658Z,21.00
2023-05-03T07:03:03.996Z,21.00
2023-05-03T07:04:04.323Z,21.25
2023-05-03T07:05:03.867Z,21.38
2023-05-03T07:06:03.570Z,21.31
2023-05-03T07:07:04.254Z,21.31
2023-05-03T07:08:04.007Z,21.38
2023-05-03T07:10:03.931Z,21.06
2023-05-03T07:11:04.421Z,20.94
2023-05-03T07:13:04.025Z,21.00
2023-05-03T07:15:03.818Z,20.94
2023-05-03T07:16:04.437Z,20.69
2023-05-03T07:18:03.783Z,21.00
2023-05-03T07:19:04.423Z,21.12
2023-05-03T07:20:04.375Z,21.00
2023-05-03T07:21:04.432Z,21.12
2023-05-03T07:22:04.184Z,21.25
2023-05-03T07:23:03.623Z,21.25
2023-05-03T07:25:03.797Z,21.56
2023-05-03T07:26:03.566Z,21.44
2023-05-03T07:27:04.289Z,21.62
2023-05-03T07:28:03.723Z,21.50
2023-05-03T07:29:03.767Z,21.50
2023-05-03T07:30:04.290Z,21.62
2023-05-03T07:31:03.930Z,22.19
2023-05-03T07:33:03.669Z,22.06
2023-05-03T07:34:04.397Z,22.19
2023-05-03T07:35:04.435Z,22.06
2023-05-03T07:36:04.258Z,21.88
2023-05-03T07:37:04.397Z,21.69
2023-05-03T07:38:04.019Z,21.81
2023-05-03T07:40:04.336Z,21.88
2023-05-03T07:41:04.415Z,21.75
2023-05-03T07:42:04.507Z,21.81
2023-05-03T07:44:04.498Z,21.88
2023-05-03T07:45:04.176Z,22.12
2023-05-03T07:46:03.725Z,22.12
2023-05-03T07:47:04.269Z,22.00
2023-05-03T07:48:03.934Z,21.75
2023-05-03T07:50:04.459Z,21.62
2023-05-03T07:51:03.616Z,21.62
2023-05-03T07:52:04.278Z,21.38
2023-05-03T07:53:04.331Z,21.06
2023-05-03T07:54:04.341Z,20.88
2023-05-03T07:55:03.942Z,20.81
2023-05-03T07:57:03.790Z,20.75
2023-05-03T07:58:04.335Z,20.44
2023-05-03T07:59:09.771Z,20.19
2023-05-03T08:00:04.328Z,20.00
2023-05-03T08:01:04.246Z,19.88
2023-05-03T08:02:03.889Z,19.62
2023-05-03T08:03:04.020Z,19.50
2023-05-03T08:05:04.454Z,19.56
2023-05-03T08:06:03.607Z,19.69
2023-05-03T08:07:03.733Z,19.62
2023-05-03T08:08:04.409Z,19.69
2023-05-03T08:09:04.667Z,19.56
2023-05-03T08:10:04.239Z,19.75
2023-05-03T08:11:04.416Z,19.94
2023-05-03T08:12:04.501Z,20.19
2023-05-03T08:13:04.034Z,20.31
2023-05-03T08:14:04.061Z,20.69
2023-05-03T08:15:03.548Z,21.06
2023-05-03T08:16:04.239Z,21.25
2023-05-03T08:17:04.431Z,21.31
2023-05-03T08:18:04.195Z,21.44
2023-05-03T08:19:03.790Z,21.31
2023-05-03T08:21:03.939Z,21.25
2023-05-03T08:22:04.492Z,21.44
2023-05-03T08:25:03.538Z,21.50
2023-05-03T08:26:04.533Z,21.69
2023-05-03T08:28:04.016Z,21.19
2023-05-03T08:29:03.709Z,21.06
2023-05-03T08:31:04.143Z,20.88
2023-05-03T08:32:03.778Z,21.19
2023-05-03T08:33:04.582Z,21.31
2023-05-03T08:34:04.264Z,21.19
2023-05-03T08:35:03.939Z,21.06
2023-05-03T08:36:04.416Z,21.00
2023-05-03T08:37:04.340Z,21.06
2023-05-03T08:38:04.339Z,21.06
2023-05-03T08:39:03.937Z,21.56
2023-05-03T08:40:04.553Z,21.38
2023-05-03T08:41:03.688Z,20.94
2023-05-03T08:43:03.936Z,20.88
2023-05-03T08:45:03.870Z,21.12
2023-05-03T08:46:03.622Z,20.88
2023-05-03T08:47:04.271Z,20.94
2023-05-03T08:48:04.031Z,20.94
2023-05-03T08:50:04.423Z,20.69
2023-05-03T08:52:04.126Z,20.88
2023-05-03T08:54:04.343Z,21.44
2023-05-03T08:55:03.845Z,21.88
2023-05-03T08:57:03.622Z,22.19
2023-05-03T08:58:04.254Z,22.38
2023-05-03T08:59:03.777Z,22.25
2023-05-03T09:00:03.762Z,21.88
2023-05-03T09:01:03.687Z,21.62
2023-05-03T09:03:03.697Z,21.44
2023-05-03T09:04:04.472Z,21.75
2023-05-03T09:05:04.160Z,21.62
2023-05-03T09:06:04.261Z,21.69
2023-05-03T09:07:03.950Z,21.62
2023-05-03T09:08:03.566Z,21.56
2023-05-03T09:09:04.087Z,21.44
2023-05-03T09:11:03.864Z,21.50
2023-05-03T09:12:04.412Z,21.19
2023-05-03T09:13:04.323Z,20.81
2023-05-03T09:14:04.331Z,21.12
2023-05-03T09:15:03.932Z,21.62
2023-05-03T09:16:04.121Z,21.75
2023-05-03T09:17:03.819Z,21.75
2023-05-03T09:18:03.899Z,21.12
2023-05-03T09:19:04.166Z,21.06
2023-05-03T09:21:04.416Z,21.81
2023-05-03T09:22:04.016Z,22.94
2023-05-03T09:24:03.706Z,21.88
2023-05-03T09:25:04.403Z,21.25
2023-05-03T09:26:04.092Z,20.69
2023-05-03T09:27:03.778Z,20.50
2023-05-03T09:28:04.085Z,20.38
2023-05-03T09:29:04.351Z,21.00
2023-05-03T09:30:04.393Z,21.94
2023-05-03T09:31:04.257Z,21.62
2023-05-03T09:32:03.876Z,22.31
2023-05-03T09:33:04.118Z,22.12
2023-05-03T09:34:03.847Z,22.00
2023-05-03T09:35:04.677Z,21.69
2023-05-03T09:36:04.370Z,21.62
2023-05-03T09:37:03.998Z,21.44
2023-05-03T09:38:04.002Z,21.25
2023-05-03T09:39:03.526Z,21.56
2023-05-03T09:40:04.264Z,21.50
2023-05-03T09:41:04.487Z,21.56
2023-05-03T09:42:04.085Z,21.56
2023-05-03T09:43:04.838Z,21.25
2023-05-03T09:44:03.923Z,20.88
2023-05-03T09:45:04.180Z,20.69
2023-05-03T09:46:04.012Z,20.62
2023-05-03T09:47:04.010Z,20.81
2023-05-03T09:48:03.576Z,20.69
2023-05-03T09:49:03.721Z,20.62
2023-05-03T09:50:04.433Z,20.88
2023-05-03T09:52:03.685Z,20.50
2023-05-03T09:53:04.412Z,20.31
2023-05-03T09:54:04.190Z,19.88
2023-05-03T09:55:03.839Z,19.56
2023-05-03T09:56:03.775Z,19.56
2023-05-03T09:58:04.257Z,19.75
2023-05-03T09:59:04.160Z,19.69
2023-05-03T10:00:03.717Z,19.75
2023-05-03T10:02:04.401Z,19.62
2023-05-03T10:03:04.107Z,19.56
2023-05-03T10:04:04.311Z,19.38
2023-05-03T10:05:04.032Z,19.44
2023-05-03T10:06:04.061Z,19.19
2023-05-03T10:08:03.535Z,19.44
2023-05-03T10:09:04.333Z,19.69
2023-05-03T10:11:04.349Z,20.25
2023-05-03T10:12:03.927Z,20.12
2023-05-03T10:13:03.627Z,20.19
2023-05-03T10:15:04.524Z,20.25
2023-05-03T10:16:03.569Z,20.19
2023-05-03T10:18:04.446Z,20.25
2023-05-03T10:19:04.101Z,20.12
2023-05-03T10:21:04.087Z,20.25
2023-05-03T10:22:04.026Z,20.06
2023-05-03T10:24:03.702Z,20.12
2023-05-03T10:25:04.497Z,20.25
2023-05-03T10:26:03.603Z,20.56
2023-05-03T10:28:04.400Z,20.56
2023-05-03T10:29:03.924Z,20.50
2023-05-03T10:30:03.672Z,20.38
2023-05-03T10:31:03.879Z,20.38
2023-05-03T10:32:04.431Z,20.38
2023-05-03T10:33:04.011Z,19.88
2023-05-03T10:34:03.514Z,19.69
2023-05-03T10:35:04.625Z,19.44
2023-05-03T10:37:03.570Z,19.56
2023-05-03T10:38:04.093Z,19.38
2023-05-03T10:39:03.608Z,19.56
2023-05-03T10:40:03.607Z,19.88
2023-05-03T10:41:04.259Z,20.19
2023-05-03T10:42:04.054Z,20.12
2023-05-03T10:43:04.487Z,20.00
2023-05-03T10:44:04.020Z,20.19
2023-05-03T10:45:03.947Z,20.19
2023-05-03T10:46:04.167Z,20.12
2023-05-03T10:48:04.511Z,19.88
2023-05-03T10:49:03.677Z,19.56
2023-05-03T10:50:03.525Z,19.31
2023-05-03T10:52:04.236Z,19.38
2023-05-03T10:53:04.334Z,19.50
2023-05-03T10:55:04.697Z,19.81
2023-05-03T10:57:04.230Z,20.38
2023-05-03T11:00:04.481Z,21.06
2023-05-03T11:01:04.244Z,21.44
2023-05-03T11:02:04.457Z,21.12
2023-05-03T11:03:04.070Z,21.50
2023-05-03T11:04:04.199Z,21.06
2023-05-03T11:06:03.909Z,20.19
2023-05-03T11:08:03.762Z,20.38
2023-05-03T11:10:04.315Z,20.12
2023-05-03T11:12:03.523Z,20.00
2023-05-03T11:13:04.286Z,19.88
2023-05-03T11:15:04.262Z,20.19
2023-05-03T11:16:04.511Z,21.31
2023-05-03T11:17:04.335Z,20.62
2023-05-03T11:18:04.053Z,20.88
2023-05-03T11:19:03.749Z,20.81
2023-05-03T11:20:04.325Z,20.75
2023-05-03T11:21:04.007Z,20.75
2023-05-03T11:22:04.498Z,20.69
2023-05-03T11:23:04.002Z,20.38
2023-05-03T11:24:04.001Z,20.19
2023-05-03T11:26:04.320Z,19.88
2023-05-03T11:27:07.911Z,19.94
2023-05-03T11:28:03.601Z,19.69
2023-05-03T11:29:03.609Z,19.62
2023-05-03T11:30:04.147Z,19.44
2023-05-03T11:31:03.682Z,19.56
2023-05-03T11:32:04.376Z,19.50
2023-05-03T11:33:04.020Z,19.69
2023-05-03T11:34:03.607Z,20.06
2023-05-03T11:35:03.871Z,20.62
2023-05-03T11:36:04.498Z,21.12
2023-05-03T11:37:03.996Z,21.44
2023-05-03T11:38:03.526Z,21.88
2023-05-03T11:39:03.692Z,21.88
2023-05-03T11:40:04.488Z,22.19
2023-05-03T11:41:04.069Z,21.88
2023-05-03T11:42:03.606Z,21.44
2023-05-03T11:43:04.160Z,21.31
2023-05-03T11:44:15.818Z,21.06
2023-05-03T11:45:04.327Z,20.69
2023-05-03T11:46:04.121Z,20.69
2023-05-03T11:47:04.148Z,20.75
2023-05-03T11:48:04.207Z,20.81
2023-05-03T11:49:04.077Z,20.69
2023-05-03T11:52:04.332Z,20.88
2023-05-03T11:53:03.889Z,21.62
2023-05-03T11:54:13.359Z,21.88
2023-05-03T11:56:04.073Z,21.31
2023-05-03T11:57:04.182Z,20.94
2023-05-03T11:59:03.715Z,20.69
2023-05-03T12:00:04.256Z,20.50
2023-05-03T12:01:04.346Z,20.81
2023-05-03T12:02:04.068Z,20.88
2023-05-03T12:03:04.010Z,20.69
2023-05-03T12:04:04.053Z,20.69
2023-05-03T12:05:04.318Z,20.50
2023-05-03T12:06:04.843Z,20.31
2023-05-03T12:08:05.369Z,20.25
2023-05-03T12:10:14.884Z,20.06
2023-05-03T12:11:04.173Z,20.06
2023-05-03T12:12:05.851Z,20.12
2023-05-03T12:13:05.023Z,20.00
2023-05-03T12:14:03.963Z,19.75
2023-05-03T12:15:04.964Z,19.69
2023-05-03T12:18:04.566Z,19.62
2023-05-03T12:19:04.425Z,19.75
2023-05-03T12:23:04.411Z,21.06
2023-05-03T12:24:05.798Z,21.12
2023-05-03T12:25:04.534Z,21.19
2023-05-03T12:26:05.305Z,21.19
2023-05-03T12:27:03.783Z,21.00
2023-05-03T12:29:06.437Z,20.81
2023-05-03T12:30:04.509Z,21.12
2023-05-03T12:31:05.319Z,21.12
2023-05-03T12:32:04.286Z,20.94
2023-05-03T12:33:04.747Z,20.75
2023-05-03T12:35:04.016Z,20.69
2023-05-03T12:36:04.479Z,20.69
2023-05-03T12:37:04.566Z,20.56
2023-05-03T12:38:03.811Z,20.88
2023-05-03T12:39:03.801Z,20.56
2023-05-03T12:41:05.493Z,20.75
2023-05-03T12:42:07.409Z,20.69
2023-05-03T12:43:04.360Z,20.50
2023-05-03T12:44:03.829Z,20.62
2023-05-03T12:45:05.114Z,20.62
2023-05-03T12:48:04.408Z,20.56
2023-05-03T12:49:07.058Z,20.81
2023-05-03T12:50:06.167Z,21.06
2023-05-03T12:51:18.255Z,20.88
2023-05-03T12:52:25.206Z,21.00
2023-05-03T12:54:03.905Z,21.12
2023-05-03T12:55:04.249Z,21.56
2023-05-03T12:56:06.541Z,21.69
2023-05-03T12:57:08.095Z,21.38
2023-05-03T12:59:30.857Z,20.88
2023-05-03T13:00:04.731Z,20.62
2023-05-03T13:01:37.709Z,20.69
2023-05-03T13:04:27.070Z,20.75
2023-05-03T13:05:11.713Z,20.88
2023-05-03T13:06:11.655Z,21.06
2023-05-03T13:07:03.821Z,21.44
2023-05-03T13:08:08.907Z,21.31
2023-05-03T13:09:04.445Z,21.25
2023-05-03T13:11:03.709Z,21.12
2023-05-03T13:12:04.129Z,21.19
2023-05-03T13:13:03.782Z,21.19
2023-05-03T13:14:04.360Z,21.12
2023-05-03T13:16:03.915Z,21.75
2023-05-03T13:17:04.223Z,21.88
2023-05-03T13:18:04.351Z,21.56
2023-05-03T13:19:04.353Z,21.31
2023-05-03T13:20:04.036Z,20.94
2023-05-03T13:21:04.181Z,20.81
2023-05-03T13:23:04.411Z,21.12
2023-05-03T13:24:04.177Z,21.19
2023-05-03T13:25:04.267Z,21.19
2023-05-03T13:27:04.109Z,21.31
2023-05-03T13:29:04.442Z,21.06
2023-05-03T13:30:03.859Z,20.94
2023-05-03T13:31:04.532Z,20.88
2023-05-03T13:32:04.105Z,21.25
2023-05-03T13:33:04.093Z,21.31
2023-05-03T13:34:03.685Z,21.50
2023-05-03T13:35:04.528Z,21.38
2023-05-03T13:36:03.782Z,21.62
2023-05-03T13:37:04.663Z,21.81
2023-05-03T13:39:03.922Z,21.62
2023-05-03T13:41:05.386Z,21.38
2023-05-03T13:42:04.135Z,21.38
2023-05-03T13:43:04.283Z,21.31
2023-05-03T13:44:04.328Z,21.25
2023-05-03T13:45:03.768Z,20.81
2023-05-03T13:46:04.062Z,20.56
2023-05-03T13:47:04.084Z,20.56
2023-05-03T13:48:14.861Z,20.56
2023-05-03T13:50:04.147Z,20.19
2023-05-03T13:51:04.195Z,20.31
2023-05-03T13:54:04.411Z,21.19
2023-05-03T13:55:04.004Z,21.06
2023-05-03T13:56:04.094Z,20.81
2023-05-03T13:57:03.693Z,20.88
2023-05-03T13:58:04.325Z,21.12
2023-05-03T13:59:04.004Z,20.94
2023-05-03T14:00:03.985Z,20.81
2023-05-03T14:01:03.961Z,20.75
2023-05-03T14:02:03.633Z,20.69
2023-05-03T14:03:04.311Z,21.06
2023-05-03T14:04:04.347Z,21.06
2023-05-03T14:05:04.399Z,21.00
2023-05-03T14:07:04.296Z,20.88
2023-05-03T14:08:03.933Z,20.75
2023-05-03T14:10:03.675Z,20.56
2023-05-03T14:11:06.066Z,20.69
2023-05-03T14:12:04.323Z,20.69
2023-05-03T14:13:04.608Z,20.88
2023-05-03T14:15:04.302Z,21.00
2023-05-03T14:17:03.771Z,21.62
2023-05-03T14:18:05.741Z,21.25
2023-05-03T14:20:04.573Z,20.69
2023-05-03T14:21:03.530Z,20.56
2023-05-03T14:22:04.506Z,20.31
2023-05-03T14:23:04.164Z,20.06
2023-05-03T14:24:04.247Z,20.00
2023-05-03T14:25:03.782Z,20.19
2023-05-03T14:26:03.942Z,21.00
2023-05-03T14:28:04.254Z,20.81
2023-05-03T14:29:03.930Z,20.62
2023-05-03T14:30:04.175Z,20.38
2023-05-03T14:31:03.803Z,20.38
2023-05-03T14:32:03.621Z,20.50
2023-05-03T14:33:04.239Z,20.56
2023-05-03T14:35:03.766Z,20.31
2023-05-03T14:36:04.407Z,20.31
2023-05-03T14:37:03.923Z,20.19
2023-05-03T14:38:03.865Z,20.06
2023-05-03T14:40:03.693Z,20.06
2023-05-03T14:41:03.941Z,20.06
2023-05-03T14:43:04.181Z,20.88
2023-05-03T14:45:03.690Z,21.06
2023-05-03T14:46:03.847Z,21.75
2023-05-03T14:47:03.735Z,22.25
2023-05-03T14:48:03.641Z,22.50
2023-05-03T14:49:04.182Z,22.06
2023-05-03T14:50:04.157Z,21.69
2023-05-03T14:52:03.522Z,21.69
2023-05-03T14:53:03.605Z,21.38
2023-05-03T14:54:03.709Z,21.00
2023-05-03T14:55:03.750Z,21.19
2023-05-03T14:57:03.538Z,20.62
2023-05-03T14:58:04.464Z,20.31
2023-05-03T14:59:03.701Z,20.62
2023-05-03T15:00:04.486Z,20.62
2023-05-03T15:01:03.593Z,20.69
2023-05-03T15:02:04.213Z,20.94
2023-05-03T15:03:04.878Z,20.94
2023-05-03T15:04:03.712Z,20.62
2023-05-03T15:05:04.417Z,20.31
2023-05-03T15:06:04.011Z,20.12
2023-05-03T15:07:03.625Z,20.12
2023-05-03T15:08:04.360Z,20.38
2023-05-03T15:09:03.927Z,20.19
2023-05-03T15:10:03.823Z,20.06
2023-05-03T15:11:03.657Z,20.31
2023-05-03T15:12:04.333Z,20.44
2023-05-03T15:13:04.043Z,20.19
2023-05-03T15:15:04.120Z,19.88
2023-05-03T15:16:03.642Z,19.94
2023-05-03T15:17:03.759Z,19.81
2023-05-03T15:18:04.017Z,19.75
2023-05-03T15:20:04.301Z,19.81
2023-05-03T15:21:04.309Z,19.44
2023-05-03T15:22:04.338Z,19.25
2023-05-03T15:23:03.853Z,19.00
2023-05-03T15:25:03.526Z,18.88
2023-05-03T15:26:04.111Z,18.88
2023-05-03T15:28:04.647Z,19.12
2023-05-03T15:29:03.608Z,19.00
2023-05-03T15:30:04.366Z,19.12
2023-05-03T15:31:03.466Z,19.50
2023-05-03T15:32:03.689Z,19.81
2023-05-03T15:33:04.466Z,20.00
2023-05-03T15:34:04.283Z,19.88
2023-05-03T15:35:03.946Z,19.81
2023-05-03T15:36:03.928Z,19.81
2023-05-03T15:37:03.870Z,19.81
2023-05-03T15:39:04.417Z,20.19
2023-05-03T15:40:05.397Z,20.38
2023-05-03T15:41:04.416Z,20.31
2023-05-03T15:42:04.186Z,20.00
2023-05-03T15:44:04.244Z,19.88
2023-05-03T15:45:03.867Z,20.31
2023-05-03T15:47:03.802Z,20.25
2023-05-03T15:48:03.627Z,20.06
2023-05-03T15:49:04.265Z,20.25
2023-05-03T15:51:03.435Z,20.19
2023-05-03T15:52:03.620Z,20.25
2023-05-03T15:53:04.253Z,20.12
2023-05-03T15:54:03.845Z,20.19